sensor_id;sensor_type;location;lat;lon;timestamp;pressure;altitude;pressure_sealevel;temperature
75811;BMP280;64449;50.016;19.954;2024-03-23T00:53:24;98051.41;;;12.70
75811;BMP280;64449;50.016;19.954;2024-03-23T00:55:50;98046.41;;;12.72
75811;BMP280;64449;50.016;19.954;2024-03-23T00:58:16;98045.46;;;12.72
75811;BMP280;64449;50.016;19.954;2024-03-23T01:00:41;98046.02;;;12.73
75811;BMP280;64449;50.016;19.954;2024-03-23T01:03:07;98041.41;;;12.73
75811;BMP280;64449;50.016;19.954;2024-03-23T01:05:32;98042.40;;;12.74
75811;BMP280;64449;50.016;19.954;2024-03-23T01:07:58;98041.63;;;12.74
75811;BMP280;64449;50.016;19.954;2024-03-23T01:10:23;98041.80;;;12.75
75811;BMP280;64449;50.016;19.954;2024-03-23T01:12:49;98041.48;;;12.75
75811;BMP280;64449;50.016;19.954;2024-03-23T01:15:14;98038.52;;;12.76
75811;BMP280;64449;50.016;19.954;2024-03-23T01:17:40;98032.73;;;12.76
75811;BMP280;64449;50.016;19.954;2024-03-23T01:20:06;98033.69;;;12.75
75811;BMP280;64449;50.016;19.954;2024-03-23T01:22:32;98030.29;;;12.76
75811;BMP280;64449;50.016;19.954;2024-03-23T01:24:58;98026.25;;;12.76
75811;BMP280;64449;50.016;19.954;2024-03-23T01:27:24;98023.59;;;12.76
75811;BMP280;64449;50.016;19.954;2024-03-23T01:29:49;98021.88;;;12.76
75811;BMP280;64449;50.016;19.954;2024-03-23T01:32:16;98018.18;;;12.76
75811;BMP280;64449;50.016;19.954;2024-03-23T01:34:41;98017.56;;;12.76
75811;BMP280;64449;50.016;19.954;2024-03-23T01:37:07;98013.44;;;12.76
75811;BMP280;64449;50.016;19.954;2024-03-23T01:39:32;98013.14;;;12.77
75811;BMP280;64449;50.016;19.954;2024-03-23T01:41:57;98011.99;;;12.76
75811;BMP280;64449;50.016;19.954;2024-03-23T01:44:23;98007.93;;;12.76
75811;BMP280;64449;50.016;19.954;2024-03-23T01:46:49;98006.80;;;12.75
75811;BMP280;64449;50.016;19.954;2024-03-23T01:49:14;98007.20;;;12.76
75811;BMP280;64449;50.016;19.954;2024-03-23T01:51:40;98008.41;;;12.77
75811;BMP280;64449;50.016;19.954;2024-03-23T01:54:07;98004.38;;;12.76
75811;BMP280;64449;50.016;19.954;2024-03-23T01:56:33;98007.97;;;12.77
75811;BMP280;64449;50.016;19.954;2024-03-23T01:59:01;98005.09;;;12.76
75811;BMP280;64449;50.016;19.954;2024-03-23T02:01:27;98004.24;;;12.75
75811;BMP280;64449;50.016;19.954;2024-03-23T02:03:53;98004.98;;;12.75
75811;BMP280;64449;50.016;19.954;2024-03-23T02:06:18;98007.14;;;12.75
75811;BMP280;64449;50.016;19.954;2024-03-23T02:08:44;98003.98;;;12.75
75811;BMP280;64449;50.016;19.954;2024-03-23T02:11:09;98000.95;;;12.75
75811;BMP280;64449;50.016;19.954;2024-03-23T02:13:35;97998.23;;;12.73
75811;BMP280;64449;50.016;19.954;2024-03-23T02:16:00;97994.58;;;12.72
75811;BMP280;64449;50.016;19.954;2024-03-23T02:18:26;97992.36;;;12.71
75811;BMP280;64449;50.016;19.954;2024-03-23T02:20:52;97989.15;;;12.70
75811;BMP280;64449;50.016;19.954;2024-03-23T02:23:17;97988.32;;;12.68
75811;BMP280;64449;50.016;19.954;2024-03-23T02:25:43;97986.08;;;12.66
75811;BMP280;64449;50.016;19.954;2024-03-23T02:28:09;97978.28;;;12.64
75811;BMP280;64449;50.016;19.954;2024-03-23T02:30:35;97974.52;;;12.61
75811;BMP280;64449;50.016;19.954;2024-03-23T02:33:01;97972.53;;;12.60
75811;BMP280;64449;50.016;19.954;2024-03-23T02:35:26;97965.73;;;12.58
75811;BMP280;64449;50.016;19.954;2024-03-23T02:37:52;97963.38;;;12.54
75811;BMP280;64449;50.016;19.954;2024-03-23T02:40:19;97965.97;;;12.50
75811;BMP280;64449;50.016;19.954;2024-03-23T02:42:45;97965.58;;;12.46
75811;BMP280;64449;50.016;19.954;2024-03-23T02:45:11;97968.92;;;12.44
75811;BMP280;64449;50.016;19.954;2024-03-23T02:47:37;97967.41;;;12.41
75811;BMP280;64449;50.016;19.954;2024-03-23T02:50:03;97965.91;;;12.39
75811;BMP280;64449;50.016;19.954;2024-03-23T02:52:29;97960.45;;;12.35
75811;BMP280;64449;50.016;19.954;2024-03-23T02:54:55;97961.79;;;12.30
75811;BMP280;64449;50.016;19.954;2024-03-23T02:57:20;97957.69;;;12.25
75811;BMP280;64449;50.016;19.954;2024-03-23T02:59:46;97959.27;;;12.22
75811;BMP280;64449;50.016;19.954;2024-03-23T03:02:12;97955.45;;;12.22
75811;BMP280;64449;50.016;19.954;2024-03-23T03:04:38;97952.94;;;12.22
75811;BMP280;64449;50.016;19.954;2024-03-23T03:07:04;97949.20;;;12.22
75811;BMP280;64449;50.016;19.954;2024-03-23T03:09:29;97955.20;;;12.22
75811;BMP280;64449;50.016;19.954;2024-03-23T03:11:55;97957.72;;;12.20
75811;BMP280;64449;50.016;19.954;2024-03-23T03:14:20;97955.93;;;12.20
75811;BMP280;64449;50.016;19.954;2024-03-23T03:16:46;97953.41;;;12.20
75811;BMP280;64449;50.016;19.954;2024-03-23T03:19:11;97949.80;;;12.20
75811;BMP280;64449;50.016;19.954;2024-03-23T03:21:37;97941.53;;;12.20
75811;BMP280;64449;50.016;19.954;2024-03-23T03:24:03;97937.52;;;12.19
75811;BMP280;64449;50.016;19.954;2024-03-23T03:26:28;97931.86;;;12.18
75811;BMP280;64449;50.016;19.954;2024-03-23T03:28:54;97926.60;;;12.15
75811;BMP280;64449;50.016;19.954;2024-03-23T03:31:19;97922.42;;;12.12
75811;BMP280;64449;50.016;19.954;2024-03-23T03:33:45;97920.39;;;12.11
75811;BMP280;64449;50.016;19.954;2024-03-23T03:36:11;97919.41;;;12.11
75811;BMP280;64449;50.016;19.954;2024-03-23T03:38:37;97919.86;;;12.11
75811;BMP280;64449;50.016;19.954;2024-03-23T03:41:04;97916.36;;;12.12
75811;BMP280;64449;50.016;19.954;2024-03-23T03:43:31;97916.50;;;12.13
75811;BMP280;64449;50.016;19.954;2024-03-23T03:45:58;97913.33;;;12.13
75811;BMP280;64449;50.016;19.954;2024-03-23T03:48:24;97913.64;;;12.14
75811;BMP280;64449;50.016;19.954;2024-03-23T03:50:50;97909.47;;;12.14
75811;BMP280;64449;50.016;19.954;2024-03-23T03:53:15;97904.55;;;12.14
75811;BMP280;64449;50.016;19.954;2024-03-23T03:55:41;97898.73;;;12.13
75811;BMP280;64449;50.016;19.954;2024-03-23T03:58:07;97896.21;;;12.12
75811;BMP280;64449;50.016;19.954;2024-03-23T04:00:32;97889.02;;;12.10
75811;BMP280;64449;50.016;19.954;2024-03-23T04:02:58;97887.31;;;12.10
75811;BMP280;64449;50.016;19.954;2024-03-23T04:05:24;97892.48;;;12.10
75811;BMP280;64449;50.016;19.954;2024-03-23T04:07:49;97889.59;;;12.09
75811;BMP280;64449;50.016;19.954;2024-03-23T04:10:15;97890.25;;;12.08
75811;BMP280;64449;50.016;19.954;2024-03-23T04:12:43;97889.29;;;12.06
75811;BMP280;64449;50.016;19.954;2024-03-23T04:15:10;97888.27;;;12.06
75811;BMP280;64449;50.016;19.954;2024-03-23T04:17:35;97887.80;;;12.04
75811;BMP280;64449;50.016;19.954;2024-03-23T04:20:01;97891.70;;;12.04
75811;BMP280;64449;50.016;19.954;2024-03-23T04:22:28;97891.55;;;12.05
75811;BMP280;64449;50.016;19.954;2024-03-23T04:24:54;97890.65;;;12.04
75811;BMP280;64449;50.016;19.954;2024-03-23T04:27:20;97896.20;;;12.05
75811;BMP280;64449;50.016;19.954;2024-03-23T04:29:49;97884.06;;;12.06
75811;BMP280;64449;50.016;19.954;2024-03-23T04:32:15;97894.45;;;12.07
75811;BMP280;64449;50.016;19.954;2024-03-23T04:34:41;97891.41;;;12.08
75811;BMP280;64449;50.016;19.954;2024-03-23T04:37:07;97883.40;;;12.08
75811;BMP280;64449;50.016;19.954;2024-03-23T04:39:33;97880.42;;;12.08
75811;BMP280;64449;50.016;19.954;2024-03-23T04:41:58;97882.26;;;12.09
75811;BMP280;64449;50.016;19.954;2024-03-23T04:44:24;97876.81;;;12.11
75811;BMP280;64449;50.016;19.954;2024-03-23T04:46:49;97870.60;;;12.11
75811;BMP280;64449;50.016;19.954;2024-03-23T04:49:15;97872.30;;;12.11
75811;BMP280;64449;50.016;19.954;2024-03-23T04:51:40;97868.36;;;12.12
75811;BMP280;64449;50.016;19.954;2024-03-23T04:54:14;97865.44;;;12.14
75811;BMP280;64449;50.016;19.954;2024-03-23T04:56:40;97864.02;;;12.14
75811;BMP280;64449;50.016;19.954;2024-03-23T04:59:05;97860.10;;;12.15
75811;BMP280;64449;50.016;19.954;2024-03-23T05:01:34;97858.59;;;12.17
75811;BMP280;64449;50.016;19.954;2024-03-23T05:03:59;97860.90;;;12.18
75811;BMP280;64449;50.016;19.954;2024-03-23T05:06:25;97857.44;;;12.19
75811;BMP280;64449;50.016;19.954;2024-03-23T05:08:51;97855.80;;;12.20
75811;BMP280;64449;50.016;19.954;2024-03-23T05:11:17;97852.48;;;12.21
75811;BMP280;64449;50.016;19.954;2024-03-23T05:13:43;97851.06;;;12.23
75811;BMP280;64449;50.016;19.954;2024-03-23T05:16:09;97854.21;;;12.24
75811;BMP280;64449;50.016;19.954;2024-03-23T05:18:35;97853.64;;;12.25
75811;BMP280;64449;50.016;19.954;2024-03-23T05:21:00;97848.61;;;12.26
75811;BMP280;64449;50.016;19.954;2024-03-23T05:23:28;97843.36;;;12.26
75811;BMP280;64449;50.016;19.954;2024-03-23T05:25:53;97837.66;;;12.26
75811;BMP280;64449;50.016;19.954;2024-03-23T05:28:20;97841.27;;;12.26
75811;BMP280;64449;50.016;19.954;2024-03-23T05:30:53;97843.25;;;12.26
75811;BMP280;64449;50.016;19.954;2024-03-23T05:33:19;97842.71;;;12.26
75811;BMP280;64449;50.016;19.954;2024-03-23T05:35:45;97837.38;;;12.25
75811;BMP280;64449;50.016;19.954;2024-03-23T05:38:11;97822.48;;;12.24
75811;BMP280;64449;50.016;19.954;2024-03-23T05:40:37;97812.08;;;12.25
75811;BMP280;64449;50.016;19.954;2024-03-23T05:43:06;97825.34;;;12.26
75811;BMP280;64449;50.016;19.954;2024-03-23T05:45:32;97819.58;;;12.26
75811;BMP280;64449;50.016;19.954;2024-03-23T05:47:58;97825.73;;;12.26
75811;BMP280;64449;50.016;19.954;2024-03-23T05:50:23;97830.64;;;12.27
75811;BMP280;64449;50.016;19.954;2024-03-23T05:52:50;97822.48;;;12.26
75811;BMP280;64449;50.016;19.954;2024-03-23T05:55:16;97811.70;;;12.25
75811;BMP280;64449;50.016;19.954;2024-03-23T05:57:41;97807.52;;;12.24
75811;BMP280;64449;50.016;19.954;2024-03-23T06:00:07;97812.24;;;12.25
75811;BMP280;64449;50.016;19.954;2024-03-23T06:02:44;97809.82;;;12.25
75811;BMP280;64449;50.016;19.954;2024-03-23T06:05:12;97811.20;;;12.26
75811;BMP280;64449;50.016;19.954;2024-03-23T06:07:38;97812.80;;;12.28
75811;BMP280;64449;50.016;19.954;2024-03-23T06:10:05;97813.29;;;12.31
75811;BMP280;64449;50.016;19.954;2024-03-23T06:12:31;97817.06;;;12.34
75811;BMP280;64449;50.016;19.954;2024-03-23T06:14:57;97812.89;;;12.36
75811;BMP280;64449;50.016;19.954;2024-03-23T06:17:23;97803.95;;;12.39
75811;BMP280;64449;50.016;19.954;2024-03-23T06:19:48;97793.92;;;12.44
75811;BMP280;64449;50.016;19.954;2024-03-23T06:22:14;97794.65;;;12.47
75811;BMP280;64449;50.016;19.954;2024-03-23T06:24:40;97791.86;;;12.49
75811;BMP280;64449;50.016;19.954;2024-03-23T06:27:05;97790.10;;;12.53
75811;BMP280;64449;50.016;19.954;2024-03-23T06:29:31;97784.44;;;12.57
75811;BMP280;64449;50.016;19.954;2024-03-23T06:31:58;97780.85;;;12.60
75811;BMP280;64449;50.016;19.954;2024-03-23T06:34:24;97777.61;;;12.64
75811;BMP280;64449;50.016;19.954;2024-03-23T06:36:49;97778.52;;;12.68
75811;BMP280;64449;50.016;19.954;2024-03-23T06:39:18;97779.57;;;12.70
75811;BMP280;64449;50.016;19.954;2024-03-23T06:41:52;97780.83;;;12.73
75811;BMP280;64449;50.016;19.954;2024-03-23T06:44:18;97780.95;;;12.75
75811;BMP280;64449;50.016;19.954;2024-03-23T06:46:44;97778.06;;;12.77
75811;BMP280;64449;50.016;19.954;2024-03-23T06:49:10;97784.17;;;12.79
75811;BMP280;64449;50.016;19.954;2024-03-23T06:51:36;97786.10;;;12.83
75811;BMP280;64449;50.016;19.954;2024-03-23T06:54:03;97786.63;;;12.87
75811;BMP280;64449;50.016;19.954;2024-03-23T06:56:29;97789.23;;;12.92
75811;BMP280;64449;50.016;19.954;2024-03-23T06:58:56;97786.29;;;12.97
75811;BMP280;64449;50.016;19.954;2024-03-23T07:01:22;97778.12;;;13.01
75811;BMP280;64449;50.016;19.954;2024-03-23T07:03:47;97780.66;;;13.08
75811;BMP280;64449;50.016;19.954;2024-03-23T07:06:12;97769.51;;;13.14
75811;BMP280;64449;50.016;19.954;2024-03-23T07:08:38;97770.67;;;13.20
75811;BMP280;64449;50.016;19.954;2024-03-23T07:11:03;97776.80;;;13.26
75811;BMP280;64449;50.016;19.954;2024-03-23T07:13:30;97777.71;;;13.33
75811;BMP280;64449;50.016;19.954;2024-03-23T07:15:56;97771.86;;;13.39
75811;BMP280;64449;50.016;19.954;2024-03-23T07:18:23;97758.62;;;13.46
75811;BMP280;64449;50.016;19.954;2024-03-23T07:20:53;97763.35;;;13.56
75811;BMP280;64449;50.016;19.954;2024-03-23T07:23:18;97771.91;;;13.68
75811;BMP280;64449;50.016;19.954;2024-03-23T07:25:44;97772.71;;;13.78
75811;BMP280;64449;50.016;19.954;2024-03-23T07:28:09;97768.37;;;13.90
75811;BMP280;64449;50.016;19.954;2024-03-23T07:30:35;97767.78;;;14.00
75811;BMP280;64449;50.016;19.954;2024-03-23T07:33:01;97764.80;;;14.10
75811;BMP280;64449;50.016;19.954;2024-03-23T07:35:26;97761.95;;;14.20
75811;BMP280;64449;50.016;19.954;2024-03-23T07:37:51;97761.44;;;14.29
75811;BMP280;64449;50.016;19.954;2024-03-23T07:40:17;97762.21;;;14.38
75811;BMP280;64449;50.016;19.954;2024-03-23T07:42:42;97760.95;;;14.45
75811;BMP280;64449;50.016;19.954;2024-03-23T07:45:08;97757.73;;;14.51
75811;BMP280;64449;50.016;19.954;2024-03-23T07:47:34;97752.12;;;14.58
75811;BMP280;64449;50.016;19.954;2024-03-23T07:50:00;97748.11;;;14.66
75811;BMP280;64449;50.016;19.954;2024-03-23T07:52:28;97745.61;;;14.76
75811;BMP280;64449;50.016;19.954;2024-03-23T07:54:54;97739.52;;;14.92
75811;BMP280;64449;50.016;19.954;2024-03-23T07:57:19;97730.94;;;15.10
75811;BMP280;64449;50.016;19.954;2024-03-23T07:59:45;97724.53;;;15.21
75811;BMP280;64449;50.016;19.954;2024-03-23T08:02:10;97725.26;;;15.30
75811;BMP280;64449;50.016;19.954;2024-03-23T08:04:36;97718.16;;;15.38
75811;BMP280;64449;50.016;19.954;2024-03-23T08:07:02;97709.92;;;15.44
75811;BMP280;64449;50.016;19.954;2024-03-23T08:09:27;97693.37;;;15.48
75811;BMP280;64449;50.016;19.954;2024-03-23T08:11:53;97694.33;;;15.53
75811;BMP280;64449;50.016;19.954;2024-03-23T08:14:18;97687.42;;;15.60
75811;BMP280;64449;50.016;19.954;2024-03-23T08:16:44;97690.35;;;15.72
75811;BMP280;64449;50.016;19.954;2024-03-23T08:19:14;97682.71;;;15.90
75811;BMP280;64449;50.016;19.954;2024-03-23T08:21:40;97683.30;;;16.10
75811;BMP280;64449;50.016;19.954;2024-03-23T08:24:06;97678.99;;;16.33
75811;BMP280;64449;50.016;19.954;2024-03-23T08:26:31;97683.70;;;16.53
75811;BMP280;64449;50.016;19.954;2024-03-23T08:28:57;97681.73;;;16.68
75811;BMP280;64449;50.016;19.954;2024-03-23T08:31:22;97684.86;;;16.79
75811;BMP280;64449;50.016;19.954;2024-03-23T08:33:48;97683.11;;;16.84
75811;BMP280;64449;50.016;19.954;2024-03-23T08:36:13;97678.02;;;16.88
75811;BMP280;64449;50.016;19.954;2024-03-23T08:38:40;97671.05;;;16.91
75811;BMP280;64449;50.016;19.954;2024-03-23T08:41:07;97667.17;;;16.91
75811;BMP280;64449;50.016;19.954;2024-03-23T08:43:37;97662.36;;;16.91
75811;BMP280;64449;50.016;19.954;2024-03-23T08:46:08;97654.33;;;16.96
75811;BMP280;64449;50.016;19.954;2024-03-23T08:48:35;97649.35;;;16.97
75811;BMP280;64449;50.016;19.954;2024-03-23T08:51:04;97640.30;;;17.02
75811;BMP280;64449;50.016;19.954;2024-03-23T08:53:30;97636.05;;;17.11
75811;BMP280;64449;50.016;19.954;2024-03-23T08:55:57;97633.89;;;17.18
75811;BMP280;64449;50.016;19.954;2024-03-23T08:58:26;97627.98;;;17.28
75811;BMP280;64449;50.016;19.954;2024-03-23T09:00:52;97625.11;;;17.44
75811;BMP280;64449;50.016;19.954;2024-03-23T09:03:18;97621.83;;;17.63
75811;BMP280;64449;50.016;19.954;2024-03-23T09:05:43;97620.23;;;17.84
75811;BMP280;64449;50.016;19.954;2024-03-23T09:08:09;97620.72;;;18.14
75811;BMP280;64449;50.016;19.954;2024-03-23T09:10:41;97610.46;;;18.62
75811;BMP280;64449;50.016;19.954;2024-03-23T09:13:07;97607.70;;;18.91
75811;BMP280;64449;50.016;19.954;2024-03-23T09:15:34;97602.73;;;19.02
75811;BMP280;64449;50.016;19.954;2024-03-23T09:18:00;97595.27;;;19.03
75811;BMP280;64449;50.016;19.954;2024-03-23T09:20:26;97591.34;;;19.03
75811;BMP280;64449;50.016;19.954;2024-03-23T09:22:51;97587.80;;;19.02
75811;BMP280;64449;50.016;19.954;2024-03-23T09:25:17;97584.35;;;18.96
75811;BMP280;64449;50.016;19.954;2024-03-23T09:27:42;97582.20;;;18.95
75811;BMP280;64449;50.016;19.954;2024-03-23T09:30:08;97578.25;;;18.95
75811;BMP280;64449;50.016;19.954;2024-03-23T09:32:35;97571.67;;;18.94
75811;BMP280;64449;50.016;19.954;2024-03-23T09:35:00;97567.23;;;18.93
75811;BMP280;64449;50.016;19.954;2024-03-23T09:37:26;97560.89;;;19.04
75811;BMP280;64449;50.016;19.954;2024-03-23T09:39:51;97559.94;;;19.15
75811;BMP280;64449;50.016;19.954;2024-03-23T09:42:17;97548.26;;;19.21
75811;BMP280;64449;50.016;19.954;2024-03-23T09:44:44;97546.64;;;19.32
75811;BMP280;64449;50.016;19.954;2024-03-23T09:47:10;97539.85;;;19.38
75811;BMP280;64449;50.016;19.954;2024-03-23T09:49:35;97533.15;;;19.33
75811;BMP280;64449;50.016;19.954;2024-03-23T09:52:02;97527.80;;;19.21
75811;BMP280;64449;50.016;19.954;2024-03-23T09:54:28;97531.45;;;19.14
75811;BMP280;64449;50.016;19.954;2024-03-23T09:56:54;97529.87;;;19.14
75811;BMP280;64449;50.016;19.954;2024-03-23T09:59:19;97518.23;;;19.15
75811;BMP280;64449;50.016;19.954;2024-03-23T10:01:45;97512.48;;;19.13
75811;BMP280;64449;50.016;19.954;2024-03-23T10:04:11;97500.58;;;19.25
75811;BMP280;64449;50.016;19.954;2024-03-23T10:06:37;97489.05;;;19.45
75811;BMP280;64449;50.016;19.954;2024-03-23T10:09:16;97487.31;;;19.66
75811;BMP280;64449;50.016;19.954;2024-03-23T10:11:43;97490.58;;;19.80
75811;BMP280;64449;50.016;19.954;2024-03-23T10:14:28;97471.31;;;20.03
75811;BMP280;64449;50.016;19.954;2024-03-23T10:16:54;97465.92;;;20.38
75811;BMP280;64449;50.016;19.954;2024-03-23T10:19:31;97459.89;;;20.89
75811;BMP280;64449;50.016;19.954;2024-03-23T10:21:56;97456.14;;;21.39
75811;BMP280;64449;50.016;19.954;2024-03-23T10:24:22;97449.76;;;21.78
75811;BMP280;64449;50.016;19.954;2024-03-23T10:26:56;97446.91;;;22.27
75811;BMP280;64449;50.016;19.954;2024-03-23T10:29:22;97442.10;;;22.87
75811;BMP280;64449;50.016;19.954;2024-03-23T10:31:47;97441.05;;;23.29
75811;BMP280;64449;50.016;19.954;2024-03-23T10:34:12;97442.69;;;23.76
75811;BMP280;64449;50.016;19.954;2024-03-23T10:36:39;97429.29;;;24.18
75811;BMP280;64449;50.016;19.954;2024-03-23T10:39:07;97429.76;;;24.34
75811;BMP280;64449;50.016;19.954;2024-03-23T10:41:33;97423.20;;;24.31
75811;BMP280;64449;50.016;19.954;2024-03-23T10:44:01;97412.98;;;24.43
75811;BMP280;64449;50.016;19.954;2024-03-23T10:46:27;97402.50;;;24.44
75811;BMP280;64449;50.016;19.954;2024-03-23T10:48:52;97401.84;;;24.67
75811;BMP280;64449;50.016;19.954;2024-03-23T10:51:18;97394.27;;;25.01
75811;BMP280;64449;50.016;19.954;2024-03-23T10:53:45;97401.63;;;25.46
75811;BMP280;64449;50.016;19.954;2024-03-23T10:56:12;97373.06;;;25.49
75811;BMP280;64449;50.016;19.954;2024-03-23T10:58:42;97374.98;;;25.66
75811;BMP280;64449;50.016;19.954;2024-03-23T11:01:12;97357.23;;;25.90
75811;BMP280;64449;50.016;19.954;2024-03-23T11:03:39;97348.63;;;26.46
75811;BMP280;64449;50.016;19.954;2024-03-23T11:06:06;97348.36;;;26.82
75811;BMP280;64449;50.016;19.954;2024-03-23T11:08:35;97342.36;;;26.82
75811;BMP280;64449;50.016;19.954;2024-03-23T11:11:15;97333.40;;;26.83
75811;BMP280;64449;50.016;19.954;2024-03-23T11:13:42;97338.23;;;26.81
75811;BMP280;64449;50.016;19.954;2024-03-23T11:16:14;97336.93;;;27.00
75811;BMP280;64449;50.016;19.954;2024-03-23T11:18:40;97334.67;;;27.19
75811;BMP280;64449;50.016;19.954;2024-03-23T11:21:08;97340.71;;;27.82
75811;BMP280;64449;50.016;19.954;2024-03-23T11:23:33;97324.23;;;27.95
75811;BMP280;64449;50.016;19.954;2024-03-23T11:25:59;97322.29;;;28.21
75811;BMP280;64449;50.016;19.954;2024-03-23T11:28:24;97320.54;;;28.74
75811;BMP280;64449;50.016;19.954;2024-03-23T11:30:50;97310.44;;;29.09
75811;BMP280;64449;50.016;19.954;2024-03-23T11:33:15;97305.17;;;29.63
75811;BMP280;64449;50.016;19.954;2024-03-23T11:35:41;97298.13;;;30.22
75811;BMP280;64449;50.016;19.954;2024-03-23T11:40:40;97282.11;;;30.93
75811;BMP280;64449;50.016;19.954;2024-03-23T11:43:08;97275.70;;;31.09
75811;BMP280;64449;50.016;19.954;2024-03-23T11:45:39;97274.00;;;30.79
75811;BMP280;64449;50.016;19.954;2024-03-23T11:48:08;97261.40;;;30.12
75811;BMP280;64449;50.016;19.954;2024-03-23T11:50:38;97260.89;;;29.79
75811;BMP280;64449;50.016;19.954;2024-03-23T11:55:48;97251.77;;;29.03
75811;BMP280;64449;50.016;19.954;2024-03-23T11:58:15;97240.27;;;28.80
75811;BMP280;64449;50.016;19.954;2024-03-23T12:00:41;97237.23;;;28.75
75811;BMP280;64449;50.016;19.954;2024-03-23T12:03:07;97231.29;;;29.17
75811;BMP280;64449;50.016;19.954;2024-03-23T12:05:34;97214.66;;;30.02
75811;BMP280;64449;50.016;19.954;2024-03-23T12:08:39;97202.02;;;31.08
75811;BMP280;64449;50.016;19.954;2024-03-23T12:11:05;97198.91;;;32.42
75811;BMP280;64449;50.016;19.954;2024-03-23T12:13:31;97189.89;;;33.53
75811;BMP280;64449;50.016;19.954;2024-03-23T12:16:12;97169.91;;;33.92
75811;BMP280;64449;50.016;19.954;2024-03-23T12:18:39;97164.71;;;34.40
75811;BMP280;64449;50.016;19.954;2024-03-23T12:21:05;97149.02;;;35.04
75811;BMP280;64449;50.016;19.954;2024-03-23T12:23:31;97136.85;;;35.84
75811;BMP280;64449;50.016;19.954;2024-03-23T12:25:57;97137.95;;;36.36
75811;BMP280;64449;50.016;19.954;2024-03-23T12:28:23;97139.40;;;36.50
75811;BMP280;64449;50.016;19.954;2024-03-23T12:30:48;97135.19;;;36.18
75811;BMP280;64449;50.016;19.954;2024-03-23T12:33:14;97132.05;;;35.81
75811;BMP280;64449;50.016;19.954;2024-03-23T12:35:39;97124.59;;;34.95
75811;BMP280;64449;50.016;19.954;2024-03-23T12:38:05;97125.09;;;34.15
75811;BMP280;64449;50.016;19.954;2024-03-23T12:40:30;97109.42;;;33.23
75811;BMP280;64449;50.016;19.954;2024-03-23T12:42:56;97111.23;;;32.19
75811;BMP280;64449;50.016;19.954;2024-03-23T12:45:22;97101.08;;;31.19
75811;BMP280;64449;50.016;19.954;2024-03-23T12:47:47;97103.66;;;31.37
75811;BMP280;64449;50.016;19.954;2024-03-23T12:50:13;97108.09;;;32.60
75811;BMP280;64449;50.016;19.954;2024-03-23T12:52:38;97095.48;;;33.80
75811;BMP280;64449;50.016;19.954;2024-03-23T12:55:04;97089.23;;;35.12
75811;BMP280;64449;50.016;19.954;2024-03-23T12:57:33;97081.52;;;36.21
75811;BMP280;64449;50.016;19.954;2024-03-23T12:59:59;97073.71;;;37.07
75811;BMP280;64449;50.016;19.954;2024-03-23T13:02:25;97076.23;;;37.79
75811;BMP280;64449;50.016;19.954;2024-03-23T13:04:54;97063.51;;;37.75
75811;BMP280;64449;50.016;19.954;2024-03-23T13:07:20;97050.95;;;37.75
75811;BMP280;64449;50.016;19.954;2024-03-23T13:09:47;97040.39;;;37.93
75811;BMP280;64449;50.016;19.954;2024-03-23T13:12:15;97029.63;;;37.97
75811;BMP280;64449;50.016;19.954;2024-03-23T13:14:40;97030.14;;;38.53
75811;BMP280;64449;50.016;19.954;2024-03-23T13:17:06;97019.16;;;39.06
75811;BMP280;64449;50.016;19.954;2024-03-23T13:19:33;97022.23;;;39.05
75811;BMP280;64449;50.016;19.954;2024-03-23T13:22:00;97013.10;;;39.24
75811;BMP280;64449;50.016;19.954;2024-03-23T13:24:26;97008.77;;;39.54
75811;BMP280;64449;50.016;19.954;2024-03-23T13:26:53;97000.06;;;39.73
75811;BMP280;64449;50.016;19.954;2024-03-23T13:29:19;96989.28;;;38.76
75811;BMP280;64449;50.016;19.954;2024-03-23T13:31:46;96983.20;;;38.18
75811;BMP280;64449;50.016;19.954;2024-03-23T13:34:12;96984.23;;;37.55
75811;BMP280;64449;50.016;19.954;2024-03-23T13:36:40;96980.59;;;36.96
75811;BMP280;64449;50.016;19.954;2024-03-23T13:39:07;96983.04;;;37.91
75811;BMP280;64449;50.016;19.954;2024-03-23T13:41:42;96978.11;;;38.26
75811;BMP280;64449;50.016;19.954;2024-03-23T13:44:08;96971.37;;;38.20
75811;BMP280;64449;50.016;19.954;2024-03-23T13:46:36;96965.22;;;38.87
75811;BMP280;64449;50.016;19.954;2024-03-23T13:49:02;96968.09;;;39.55
75811;BMP280;64449;50.016;19.954;2024-03-23T13:51:28;96968.17;;;40.27
75811;BMP280;64449;50.016;19.954;2024-03-23T13:53:54;96967.89;;;40.89
75811;BMP280;64449;50.016;19.954;2024-03-23T13:56:20;96955.08;;;41.23
75811;BMP280;64449;50.016;19.954;2024-03-23T13:58:46;96957.41;;;41.44
75811;BMP280;64449;50.016;19.954;2024-03-23T14:01:16;96944.58;;;41.57
75811;BMP280;64449;50.016;19.954;2024-03-23T14:03:42;96939.15;;;41.58
75811;BMP280;64449;50.016;19.954;2024-03-23T14:06:09;96944.96;;;41.55
75811;BMP280;64449;50.016;19.954;2024-03-23T14:08:36;96943.71;;;41.05
75811;BMP280;64449;50.016;19.954;2024-03-23T14:11:04;96932.81;;;38.76
75811;BMP280;64449;50.016;19.954;2024-03-23T14:13:30;96933.77;;;37.06
75811;BMP280;64449;50.016;19.954;2024-03-23T14:15:56;96939.60;;;35.49
75811;BMP280;64449;50.016;19.954;2024-03-23T14:18:21;96934.94;;;33.64
75811;BMP280;64449;50.016;19.954;2024-03-23T14:20:52;96937.91;;;31.99
75811;BMP280;64449;50.016;19.954;2024-03-23T14:23:27;96925.05;;;30.32
75811;BMP280;64449;50.016;19.954;2024-03-23T14:25:59;96932.13;;;28.90
75811;BMP280;64449;50.016;19.954;2024-03-23T14:28:25;96931.36;;;27.78
75811;BMP280;64449;50.016;19.954;2024-03-23T14:30:52;96935.48;;;26.87
75811;BMP280;64449;50.016;19.954;2024-03-23T14:33:18;96939.98;;;26.15
75811;BMP280;64449;50.016;19.954;2024-03-23T14:35:51;96945.58;;;25.48
75811;BMP280;64449;50.016;19.954;2024-03-23T14:38:18;96962.48;;;24.89
75811;BMP280;64449;50.016;19.954;2024-03-23T14:40:44;96984.10;;;24.37
75811;BMP280;64449;50.016;19.954;2024-03-23T14:43:09;97023.73;;;23.93
75811;BMP280;64449;50.016;19.954;2024-03-23T14:45:35;97089.15;;;23.60
75811;BMP280;64449;50.016;19.954;2024-03-23T14:48:00;97157.04;;;23.04
75811;BMP280;64449;50.016;19.954;2024-03-23T14:50:26;97181.48;;;22.41